createdAt,value
2023-02-05T00:00:39.123Z,7.13
2023-02-05T00:03:06.892Z,6.77
2023-02-05T00:05:34.959Z,7.07
2023-02-05T00:08:03.006Z,8.57
2023-02-05T00:10:32.139Z,7.60
2023-02-05T00:13:00.085Z,8.80
2023-02-05T00:15:27.852Z,12.57
2023-02-05T00:17:55.640Z,10.40
2023-02-05T00:20:23.382Z,11.20
2023-02-05T00:22:51.134Z,8.60
2023-02-05T00:25:19.155Z,10.43
2023-02-05T00:27:48.257Z,9.07
2023-02-05T00:30:16.024Z,8.57
2023-02-05T00:32:43.928Z,8.13
2023-02-05T00:35:11.726Z,7.60
2023-02-05T00:37:39.522Z,9.97
2023-02-05T00:40:08.125Z,9.87
2023-02-05T00:42:38.250Z,9.30
2023-02-05T00:45:08.532Z,8.93
2023-02-05T00:47:36.325Z,11.90
2023-02-05T00:50:06.812Z,12.57
2023-02-05T00:52:34.671Z,10.83
2023-02-05T00:55:02.484Z,8.70
2023-02-05T00:57:30.250Z,8.40
2023-02-05T00:59:57.987Z,8.53
2023-02-05T01:02:27.399Z,8.57
2023-02-05T01:04:56.153Z,7.70
2023-02-05T01:07:23.962Z,7.10
2023-02-05T01:09:51.805Z,6.97
2023-02-05T01:12:21.913Z,7.30
2023-02-05T01:14:49.700Z,7.10
2023-02-05T01:17:17.510Z,7.37
2023-02-05T01:19:46.718Z,6.53
2023-02-05T01:22:14.528Z,5.67
2023-02-05T01:24:42.270Z,6.33
2023-02-05T01:27:10.027Z,7.20
2023-02-05T01:29:37.799Z,7.13
2023-02-05T01:32:06.241Z,7.13
2023-02-05T01:34:34.022Z,6.00
2023-02-05T01:37:03.175Z,6.80
2023-02-05T01:39:30.913Z,7.53
2023-02-05T01:41:58.801Z,6.97
2023-02-05T01:44:26.725Z,8.07
2023-02-05T01:46:56.353Z,7.43
2023-02-05T01:49:29.138Z,7.63
2023-02-05T01:52:00.835Z,7.87
2023-02-05T01:54:31.972Z,8.60
2023-02-05T01:57:04.656Z,10.30
2023-02-05T01:59:36.956Z,14.53
2023-02-05T02:02:07.560Z,14.53
2023-02-05T02:04:40.292Z,16.40
2023-02-05T02:07:10.157Z,14.20
2023-02-05T02:09:40.938Z,11.90
2023-02-05T02:12:09.685Z,20.00
2023-02-05T02:14:38.975Z,17.77
2023-02-05T02:17:08.400Z,12.80
2023-02-05T02:19:41.955Z,8.57
2023-02-05T02:22:39.153Z,8.80
2023-02-05T02:25:34.104Z,8.50
2023-02-05T02:28:10.960Z,8.53
2023-02-05T02:30:43.436Z,6.77
2023-02-05T02:33:17.816Z,6.57
2023-02-05T02:35:49.622Z,6.90
2023-02-05T02:38:23.535Z,7.77
2023-02-05T02:40:55.608Z,6.93
2023-02-05T02:43:33.071Z,6.40
2023-02-05T02:46:05.150Z,6.93
2023-02-05T02:48:36.118Z,7.60
2023-02-05T02:51:10.370Z,5.50
2023-02-05T02:53:42.432Z,5.70
2023-02-05T02:56:13.300Z,6.63
2023-02-05T02:58:47.066Z,6.63
2023-02-05T03:01:18.545Z,6.40
2023-02-05T03:03:53.342Z,6.07
2023-02-05T03:06:22.474Z,5.73
2023-02-05T03:08:55.586Z,6.10
2023-02-05T03:11:24.140Z,6.50
2023-02-05T03:13:53.872Z,6.23
2023-02-05T03:16:26.612Z,6.47
2023-02-05T03:18:58.139Z,5.20
2023-02-05T03:21:31.576Z,6.80
2023-02-05T03:23:59.474Z,6.33
2023-02-05T03:26:30.235Z,6.37
2023-02-05T03:29:11.529Z,6.43
2023-02-05T03:31:52.740Z,7.27
2023-02-05T03:34:32.651Z,6.93
2023-02-05T03:37:09.332Z,6.00
2023-02-05T03:39:50.282Z,6.50
2023-02-05T03:42:31.147Z,7.03
2023-02-05T03:45:22.306Z,5.60
2023-02-05T03:48:21.579Z,6.60
2023-02-05T03:50:56.934Z,7.23
2023-02-05T03:53:37.143Z,6.37
2023-02-05T03:56:13.315Z,6.93
2023-02-05T03:58:44.361Z,6.23
2023-02-05T04:01:13.208Z,5.70
2023-02-05T04:03:44.512Z,5.90
2023-02-05T04:06:13.761Z,6.53
2023-02-05T04:08:43.932Z,5.77
2023-02-05T04:11:12.481Z,5.23
2023-02-05T04:13:41.218Z,5.43
2023-02-05T04:16:11.930Z,5.00
2023-02-05T04:18:40.296Z,5.43
2023-02-05T04:21:09.573Z,6.10
2023-02-05T04:23:40.888Z,5.20
2023-02-05T04:26:12.777Z,5.70
2023-02-05T04:28:47.088Z,6.80
2023-02-05T04:31:14.956Z,4.97
2023-02-05T04:33:43.928Z,5.60
2023-02-05T04:36:15.555Z,6.13
2023-02-05T04:38:44.085Z,6.63
2023-02-05T04:41:11.947Z,6.70
2023-02-05T04:43:39.656Z,6.90
2023-02-05T04:46:07.613Z,7.03
2023-02-05T04:48:36.272Z,7.23
2023-02-05T04:51:07.721Z,7.60
2023-02-05T04:53:36.925Z,6.77
2023-02-05T04:56:08.198Z,6.77
2023-02-05T04:58:36.032Z,7.07
2023-02-05T05:01:04.312Z,7.40
2023-02-05T05:03:32.642Z,7.73
2023-02-05T05:06:05.230Z,6.77
2023-02-05T05:08:32.933Z,7.40
2023-02-05T05:11:07.434Z,7.63
2023-02-05T05:13:35.415Z,7.00
2023-02-05T05:16:04.024Z,7.87
2023-02-05T05:18:32.128Z,7.57
2023-02-05T05:21:00.039Z,7.23
2023-02-05T05:23:27.764Z,7.70
2023-02-05T05:25:55.608Z,7.77
2023-02-05T05:28:24.767Z,7.60
2023-02-05T05:30:52.525Z,7.33
2023-02-05T05:33:20.254Z,7.33
2023-02-05T05:35:48.113Z,7.00
2023-02-05T05:38:15.833Z,5.77
2023-02-05T05:41:00.942Z,6.90
2023-02-05T05:43:48.079Z,6.90
2023-02-05T05:46:22.810Z,6.70
2023-02-05T05:48:51.857Z,6.47
2023-02-05T05:51:20.033Z,5.73
2023-02-05T05:53:48.223Z,5.10
2023-02-05T05:56:16.262Z,5.17
2023-02-05T05:58:45.838Z,5.70
2023-02-05T06:01:14.894Z,6.23
2023-02-05T06:03:42.624Z,5.07
2023-02-05T06:06:13.070Z,6.77
2023-02-05T06:08:40.928Z,7.63
2023-02-05T06:11:08.789Z,6.40
2023-02-05T06:13:36.605Z,6.23
2023-02-05T06:16:06.375Z,6.90
2023-02-05T06:18:34.187Z,6.43
2023-02-05T06:21:03.245Z,6.70
2023-02-05T06:23:33.386Z,6.90
2023-02-05T06:26:01.119Z,6.10
2023-02-05T06:28:28.840Z,5.70
2023-02-05T06:30:56.629Z,6.37
2023-02-05T06:33:25.897Z,5.00
2023-02-05T06:35:53.652Z,5.07
2023-02-05T06:38:21.431Z,4.53
2023-02-05T06:40:49.909Z,5.73
2023-02-05T06:43:17.575Z,7.17
2023-02-05T06:45:45.464Z,5.20
2023-02-05T06:48:13.179Z,5.83
2023-02-05T06:50:42.357Z,4.80
2023-02-05T06:53:11.854Z,5.80
2023-02-05T06:55:40.093Z,6.70
2023-02-05T06:58:08.339Z,6.73
2023-02-05T07:00:36.877Z,6.60
2023-02-05T07:03:05.191Z,6.40
2023-02-05T07:05:34.798Z,5.50
2023-02-05T07:08:06.606Z,7.07
2023-02-05T07:10:34.537Z,6.60
2023-02-05T07:13:03.586Z,6.10
2023-02-05T07:15:33.020Z,6.10
2023-02-05T07:18:01.016Z,5.40
2023-02-05T07:20:28.713Z,5.73
2023-02-05T07:22:56.554Z,7.60
2023-02-05T07:25:25.670Z,6.17
2023-02-05T07:27:55.780Z,7.43
2023-02-05T07:30:23.687Z,8.23
2023-02-05T07:32:51.533Z,6.87
2023-02-05T07:35:19.240Z,6.97
2023-02-05T07:37:47.057Z,7.80
2023-02-05T07:40:16.962Z,7.70
2023-02-05T07:42:46.120Z,7.60
2023-02-05T07:45:14.181Z,7.10
2023-02-05T07:47:42.003Z,7.67
2023-02-05T07:50:10.190Z,7.70
2023-02-05T07:52:37.976Z,7.17
2023-02-05T07:55:06.242Z,7.40
2023-02-05T07:57:34.040Z,7.07
2023-02-05T08:00:03.171Z,7.40
2023-02-05T08:02:40.158Z,6.70
2023-02-05T08:05:08.231Z,7.13
2023-02-05T08:07:37.361Z,7.40
2023-02-05T08:10:05.645Z,5.73
2023-02-05T08:12:33.427Z,6.10
2023-02-05T08:15:01.224Z,7.20
2023-02-05T08:17:30.272Z,6.00
2023-02-05T08:19:58.272Z,7.00
2023-02-05T08:22:26.297Z,5.93
2023-02-05T08:24:53.985Z,5.83
2023-02-05T08:27:21.689Z,5.97
2023-02-05T08:29:49.793Z,7.30
2023-02-05T08:32:17.808Z,5.70
2023-02-05T08:34:46.943Z,9.03
2023-02-05T08:37:14.746Z,12.93
2023-02-05T08:39:42.525Z,8.17
2023-02-05T08:42:10.222Z,7.43
2023-02-05T08:44:37.885Z,7.60
2023-02-05T08:47:05.682Z,6.47
2023-02-05T08:49:33.417Z,6.37
2023-02-05T08:52:02.683Z,6.57
2023-02-05T08:54:30.723Z,7.23
2023-02-05T08:56:58.523Z,6.90
2023-02-05T08:59:26.283Z,6.33
2023-02-05T09:01:54.095Z,6.00
2023-02-05T09:04:23.433Z,7.50
2023-02-05T09:06:51.427Z,6.67
2023-02-05T09:09:23.709Z,5.93
2023-02-05T09:11:51.419Z,6.00
2023-02-05T09:14:19.351Z,6.93
2023-02-05T09:16:47.168Z,6.93
2023-02-05T09:19:14.947Z,6.57
2023-02-05T09:21:42.884Z,6.43
2023-02-05T09:24:10.759Z,5.40
2023-02-05T09:26:39.862Z,6.73
2023-02-05T09:29:07.559Z,7.70
2023-02-05T09:31:35.418Z,7.13
2023-02-05T09:34:04.242Z,7.57
2023-02-05T09:36:32.041Z,7.20
2023-02-05T09:39:13.425Z,7.90
2023-02-05T09:41:54.365Z,7.33
2023-02-05T09:44:41.631Z,7.87
2023-02-05T09:47:16.644Z,6.57
2023-02-05T09:49:53.842Z,7.27
2023-02-05T09:52:23.669Z,7.83
2023-02-05T09:54:55.324Z,8.20
2023-02-05T09:57:33.616Z,7.93
2023-02-05T10:00:01.654Z,6.83
2023-02-05T10:02:36.197Z,8.03
2023-02-05T10:05:07.033Z,7.43
2023-02-05T10:07:43.564Z,8.27
2023-02-05T10:10:24.543Z,8.67
2023-02-05T10:13:24.217Z,8.30
2023-02-05T10:16:10.725Z,8.03
2023-02-05T10:18:52.434Z,8.93
2023-02-05T10:21:36.608Z,7.77
2023-02-05T10:24:29.659Z,8.50
2023-02-05T10:27:07.423Z,6.50
2023-02-05T10:29:44.638Z,8.20
2023-02-05T10:32:21.167Z,9.33
2023-02-05T10:34:59.745Z,8.13
2023-02-05T10:37:37.697Z,7.60
2023-02-05T10:40:14.160Z,6.77
2023-02-05T10:42:47.563Z,7.53
2023-02-05T10:45:22.055Z,8.73
2023-02-05T10:48:01.912Z,9.13
2023-02-05T10:50:37.753Z,7.57
2023-02-05T10:53:05.617Z,8.07
2023-02-05T10:55:33.689Z,9.70
2023-02-05T10:58:08.710Z,9.67
2023-02-05T11:00:38.064Z,8.77
2023-02-05T11:03:07.039Z,9.53
2023-02-05T11:05:39.667Z,13.07
2023-02-05T11:08:35.172Z,9.87
2023-02-05T11:11:06.282Z,9.10
2023-02-05T11:13:49.710Z,9.67
2023-02-05T11:16:18.917Z,9.30
2023-02-05T11:18:56.186Z,8.53
2023-02-05T11:21:24.111Z,10.90
2023-02-05T11:23:57.037Z,8.57
2023-02-05T11:26:28.014Z,9.57
2023-02-05T11:28:55.869Z,9.97
2023-02-05T11:31:31.155Z,10.20
2023-02-05T11:34:12.506Z,10.20
2023-02-05T11:36:49.922Z,8.63
2023-02-05T11:39:29.786Z,9.23
2023-02-05T11:41:58.666Z,9.57
2023-02-05T11:44:30.358Z,9.67
2023-02-05T11:47:02.755Z,24.93
2023-02-05T11:49:35.811Z,25.33
2023-02-05T11:52:10.531Z,11.73
2023-02-05T11:54:40.220Z,9.93
2023-02-05T11:57:26.895Z,9.20
2023-02-05T11:59:56.489Z,8.57
2023-02-05T12:02:35.276Z,9.57
2023-02-05T12:05:13.315Z,9.97
2023-02-05T12:07:46.193Z,9.50
2023-02-05T12:10:17.796Z,9.87
2023-02-05T12:12:53.772Z,10.40
2023-02-05T12:15:27.585Z,11.00
2023-02-05T12:18:05.653Z,10.37
2023-02-05T12:20:42.172Z,10.83
2023-02-05T12:23:28.955Z,10.87
2023-02-05T12:26:15.393Z,10.57
2023-02-05T12:28:55.025Z,9.77
2023-02-05T12:31:37.731Z,9.57
2023-02-05T12:34:24.465Z,8.40
2023-02-05T12:37:10.486Z,10.40
2023-02-05T12:39:47.433Z,9.03
2023-02-05T12:42:31.430Z,9.10
2023-02-05T12:45:20.884Z,10.83
2023-02-05T12:48:08.097Z,9.53
2023-02-05T12:50:55.041Z,7.80
2023-02-05T12:53:34.643Z,7.37
2023-02-05T12:56:22.193Z,7.50
2023-02-05T12:58:57.120Z,7.03
2023-02-05T13:01:35.048Z,7.77
2023-02-05T13:04:03.493Z,7.03
2023-02-05T13:06:39.244Z,8.67
2023-02-05T13:09:15.978Z,6.33
2023-02-05T13:11:52.187Z,5.80
2023-02-05T13:14:23.636Z,7.60
2023-02-05T13:16:56.570Z,7.33
2023-02-05T13:19:30.807Z,7.23
2023-02-05T13:22:22.646Z,6.67
2023-02-05T13:25:11.085Z,7.00
2023-02-05T13:28:00.716Z,5.20
2023-02-05T13:30:35.901Z,5.37
2023-02-05T13:33:07.471Z,7.20
2023-02-05T13:35:58.803Z,6.73
2023-02-05T13:38:45.835Z,9.87
2023-02-05T13:41:41.709Z,6.97
2023-02-05T13:44:32.631Z,7.00
2023-02-05T13:47:28.208Z,5.63
2023-02-05T13:50:23.169Z,5.67
2023-02-05T13:53:29.949Z,4.40
2023-02-05T13:56:36.458Z,3.80
2023-02-05T13:59:06.627Z,3.17
2023-02-05T14:01:41.942Z,2.47
2023-02-05T14:04:21.158Z,2.70
2023-02-05T14:06:58.340Z,2.70
2023-02-05T14:09:35.617Z,2.60
2023-02-05T14:12:11.088Z,2.70
2023-02-05T14:14:41.107Z,2.73
2023-02-05T14:17:48.301Z,2.93
2023-02-05T14:20:34.598Z,2.90
2023-02-05T14:23:04.236Z,2.47
2023-02-05T14:26:11.191Z,2.53
2023-02-05T14:28:49.588Z,2.23
2023-02-05T14:31:58.470Z,2.47
2023-02-05T14:34:46.206Z,2.73
2023-02-05T14:37:27.684Z,2.60
2023-02-05T14:39:55.470Z,3.03
2023-02-05T14:42:23.612Z,2.67
2023-02-05T14:44:57.460Z,2.90
2023-02-05T14:47:29.709Z,2.80
2023-02-05T14:50:04.041Z,2.70
2023-02-05T14:52:36.231Z,2.90
2023-02-05T14:55:19.822Z,2.53
2023-02-05T14:57:51.605Z,2.60
2023-02-05T15:00:33.644Z,2.60
2023-02-05T15:03:25.170Z,2.53
2023-02-05T15:05:58.862Z,3.23
2023-02-05T15:08:45.231Z,2.60
2023-02-05T15:11:21.383Z,2.50
2023-02-05T15:14:44.510Z,2.90
2023-02-05T15:17:43.239Z,3.20
2023-02-05T15:20:24.941Z,3.70
2023-02-05T15:22:57.415Z,3.63
2023-02-05T15:25:39.560Z,3.67
2023-02-05T15:28:22.229Z,4.10
2023-02-05T15:31:03.141Z,3.07
2023-02-05T15:33:41.156Z,2.83
2023-02-05T15:36:27.965Z,3.83
2023-02-05T15:39:23.852Z,3.07
2023-02-05T15:41:54.859Z,4.10
2023-02-05T15:44:29.459Z,5.20
2023-02-05T15:46:59.912Z,3.93
2023-02-05T15:49:36.060Z,3.43
2023-02-05T15:52:07.355Z,2.70
2023-02-05T15:54:37.456Z,2.93
2023-02-05T15:57:06.997Z,3.13
2023-02-05T15:59:35.560Z,2.83
2023-02-05T16:02:07.169Z,2.33
2023-02-05T16:04:38.379Z,2.50
2023-02-05T16:07:20.357Z,2.10
2023-02-05T16:09:51.271Z,2.03
2023-02-05T16:12:20.696Z,2.40
2023-02-05T16:14:58.800Z,2.30
2023-02-05T16:17:39.401Z,2.60
2023-02-05T16:20:22.109Z,2.37
2023-02-05T16:22:56.384Z,2.60
2023-02-05T16:25:38.857Z,2.40
2023-02-05T16:28:14.342Z,2.47
2023-02-05T16:30:45.051Z,2.90
2023-02-05T16:33:27.154Z,2.40
2023-02-05T16:36:01.258Z,2.57
2023-02-05T16:38:45.842Z,2.73
2023-02-05T16:41:22.802Z,2.07
2023-02-05T16:43:52.304Z,2.60
2023-02-05T16:46:26.515Z,4.60
2023-02-05T16:48:57.511Z,5.10
2023-02-05T16:51:33.591Z,3.17
2023-02-05T16:54:03.190Z,3.87
2023-02-05T16:56:36.870Z,3.90
2023-02-05T16:59:06.982Z,2.90
2023-02-05T17:01:40.000Z,3.53
2023-02-05T17:04:08.673Z,4.93
2023-02-05T17:06:39.665Z,5.27
2023-02-05T17:09:07.987Z,5.97
2023-02-05T17:11:38.682Z,4.57
2023-02-05T17:14:28.517Z,10.43
2023-02-05T17:16:59.405Z,8.97
2023-02-05T17:19:30.530Z,5.63
2023-02-05T17:22:21.475Z,5.67
2023-02-05T17:24:51.893Z,8.10
2023-02-05T17:27:28.449Z,7.30
2023-02-05T17:29:57.415Z,7.30
2023-02-05T17:32:26.212Z,6.90
2023-02-05T17:34:54.258Z,6.57
2023-02-05T17:37:23.396Z,6.23
2023-02-05T17:39:51.536Z,6.40
2023-02-05T17:42:23.471Z,6.43
2023-02-05T17:44:51.783Z,5.83
2023-02-05T17:47:20.081Z,6.47
2023-02-05T17:49:48.348Z,8.03
2023-02-05T17:52:16.665Z,8.00
2023-02-05T17:54:46.471Z,6.10
2023-02-05T17:57:17.576Z,5.73
2023-02-05T17:59:48.714Z,6.03
2023-02-05T18:02:20.155Z,6.30
2023-02-05T18:04:48.319Z,5.83
2023-02-05T18:07:23.674Z,5.80
2023-02-05T18:09:52.857Z,6.17
2023-02-05T18:12:20.737Z,5.23
2023-02-05T18:14:48.563Z,5.30
2023-02-05T18:17:16.525Z,4.80
2023-02-05T18:19:48.042Z,5.20
2023-02-05T18:22:16.429Z,4.73
2023-02-05T18:24:44.376Z,4.80
2023-02-05T18:27:13.618Z,4.80
2023-02-05T18:29:43.603Z,4.13
2023-02-05T18:32:11.807Z,4.40
2023-02-05T18:34:40.120Z,3.70
2023-02-05T18:37:08.153Z,3.73
2023-02-05T18:39:36.111Z,4.10
2023-02-05T18:42:03.988Z,4.53
2023-02-05T18:44:33.654Z,4.67
2023-02-05T18:47:04.844Z,5.00
2023-02-05T18:49:32.943Z,4.30
2023-02-05T18:52:01.086Z,4.60
2023-02-05T18:54:28.976Z,4.53
2023-02-05T18:56:57.058Z,4.50
2023-02-05T18:59:25.616Z,4.10
2023-02-05T19:01:55.135Z,3.83
2023-02-05T19:04:24.813Z,4.30
2023-02-05T19:06:53.629Z,3.90
2023-02-05T19:09:22.591Z,3.80
2023-02-05T19:11:50.935Z,4.50
2023-02-05T19:14:20.382Z,4.47
2023-02-05T19:16:49.404Z,3.90
2023-02-05T19:19:23.612Z,4.87
2023-02-05T19:21:53.526Z,4.60
2023-02-05T19:24:22.582Z,5.60
2023-02-05T19:26:51.141Z,5.30
2023-02-05T19:29:20.935Z,5.60
2023-02-05T19:31:49.890Z,5.90
2023-02-05T19:34:23.404Z,5.43
2023-02-05T19:36:51.185Z,6.23
2023-02-05T19:39:18.982Z,7.83
2023-02-05T19:41:48.326Z,7.00
2023-02-05T19:44:16.334Z,7.00
2023-02-05T19:46:45.173Z,7.40
2023-02-05T19:49:14.888Z,6.93
2023-02-05T19:51:45.741Z,6.97
2023-02-05T19:54:14.894Z,7.47
2023-02-05T19:56:43.052Z,7.77
2023-02-05T19:59:11.403Z,7.87
2023-02-05T20:01:43.629Z,8.40
2023-02-05T20:04:17.456Z,10.23
2023-02-05T20:06:47.788Z,9.07
2023-02-05T20:09:16.933Z,9.03
2023-02-05T20:11:46.203Z,9.67
2023-02-05T20:14:14.010Z,10.57
2023-02-05T20:16:42.159Z,8.33
2023-02-05T20:19:14.358Z,9.03
2023-02-05T20:21:42.797Z,8.73
2023-02-05T20:24:11.987Z,9.43
2023-02-05T20:26:40.757Z,9.50
2023-02-05T20:29:27.015Z,9.43
2023-02-05T20:31:55.121Z,9.47
2023-02-05T20:34:25.829Z,9.50
2023-02-05T20:36:56.165Z,10.03
2023-02-05T20:39:28.532Z,9.83
2023-02-05T20:41:58.822Z,9.43
2023-02-05T20:44:27.545Z,9.73
2023-02-05T20:46:55.442Z,9.50
2023-02-05T20:49:23.464Z,9.73
2023-02-05T20:51:52.937Z,10.03
2023-02-05T20:54:20.866Z,10.07
2023-02-05T20:56:51.159Z,8.87
2023-02-05T20:59:18.999Z,10.00
2023-02-05T21:01:46.831Z,10.63
2023-02-05T21:04:14.770Z,9.63
2023-02-05T21:06:42.637Z,9.80
2023-02-05T21:09:11.525Z,10.37
2023-02-05T21:11:40.478Z,9.70
2023-02-05T21:14:10.412Z,9.37
2023-02-05T21:16:40.024Z,10.23
2023-02-05T21:19:09.187Z,9.50
2023-02-05T21:21:40.873Z,10.13
2023-02-05T21:24:12.511Z,11.40
2023-02-05T21:26:42.168Z,10.90
2023-02-05T21:29:13.938Z,9.93
2023-02-05T21:31:44.939Z,10.37
2023-02-05T21:34:15.144Z,10.63
2023-02-05T21:36:43.012Z,13.20
2023-02-05T21:39:11.965Z,17.33
2023-02-05T21:41:40.198Z,12.70
2023-02-05T21:44:07.979Z,13.47
2023-02-05T21:46:37.394Z,12.93
2023-02-05T21:49:05.466Z,12.13
2023-02-05T21:51:36.452Z,13.07
2023-02-05T21:54:06.761Z,12.87
2023-02-05T21:56:38.604Z,13.43
2023-02-05T21:59:06.817Z,13.13
2023-02-05T22:01:37.484Z,13.30
2023-02-05T22:04:10.041Z,12.53
2023-02-05T22:06:38.253Z,12.97
2023-02-05T22:09:07.761Z,13.33
2023-02-05T22:11:36.049Z,14.33
2023-02-05T22:14:03.835Z,13.70
2023-02-05T22:16:33.746Z,14.03
2023-02-05T22:19:04.116Z,14.03
2023-02-05T22:21:33.692Z,13.27
2023-02-05T22:24:03.389Z,12.83
2023-02-05T22:26:33.722Z,12.97
2023-02-05T22:29:03.152Z,13.97
2023-02-05T22:31:31.679Z,11.07
2023-02-05T22:33:59.997Z,14.10
2023-02-05T22:36:30.293Z,12.13
2023-02-05T22:38:58.773Z,13.03
2023-02-05T22:41:28.773Z,13.57
2023-02-05T22:43:57.685Z,13.13
2023-02-05T22:46:27.493Z,14.30
2023-02-05T22:48:55.947Z,13.80
2023-02-05T22:51:25.408Z,14.10
2023-02-05T22:53:55.110Z,16.10
2023-02-05T22:56:23.239Z,14.93
2023-02-05T22:58:52.281Z,15.33
2023-02-05T23:01:22.252Z,16.43
2023-02-05T23:03:51.941Z,15.57
2023-02-05T23:06:21.647Z,16.87
2023-02-05T23:08:52.288Z,17.03
2023-02-05T23:11:22.229Z,18.10
2023-02-05T23:13:50.611Z,17.87
2023-02-05T23:16:20.973Z,18.90
2023-02-05T23:18:49.166Z,19.23
2023-02-05T23:21:19.359Z,18.90
2023-02-05T23:23:47.628Z,20.43
2023-02-05T23:26:19.052Z,19.90
2023-02-05T23:28:48.691Z,20.60
2023-02-05T23:31:17.167Z,20.87
2023-02-05T23:33:45.155Z,21.57
2023-02-05T23:36:13.439Z,21.20
2023-02-05T23:38:41.323Z,21.30
2023-02-05T23:41:09.940Z,21.73
2023-02-05T23:43:40.298Z,22.70
2023-02-05T23:46:09.495Z,22.23
2023-02-05T23:48:37.266Z,21.70
2023-02-05T23:51:04.986Z,22.43
2023-02-05T23:53:32.793Z,24.27
2023-02-05T23:56:01.670Z,23.10
2023-02-05T23:58:29.555Z,23.77
